Time;durP1;ratioP1;P1;durP2;ratioP2;P2;SDS_P1;SDS_P2;PMS_P1;PMS_P2;Temp;Humidity;BMP_temperature;BMP_pressure;BME280_temperature;BME280_humidity;BME280_pressure;Samples;Min_cycle;Max_cycle;Signal;HPM_P1;HPM_P2
2023/07/22 00:02:08;;;;;;;18.13;6.35;;;;;;;26.98;41.80;95072.19;4949019;29;20046;-85
2023/07/22 00:04:33;;;;;;;20.20;7.07;;;;;;;27.68;41.38;95171.75;5033634;28;20055;-85
2023/07/22 00:06:59;;;;;;;16.60;6.22;;;;;;;27.84;41.16;95197.53;4966095;28;20157;-85
2023/07/22 00:09:24;;;;;;;17.27;6.68;;;;;;;27.79;41.26;95183.47;4932884;29;20055;-85
2023/07/22 00:11:50;;;;;;;18.73;6.40;;;;;;;27.86;41.45;95194.41;4934137;28;20043;-85
2023/07/22 00:14:16;;;;;;;15.00;6.07;;;;;;;27.56;41.80;95170.91;5005772;28;20537;-85
2023/07/22 00:16:41;;;;;;;14.82;6.82;;;;;;;27.45;41.73;95150.22;4934477;29;20051;-85
2023/07/22 00:19:07;;;;;;;22.88;6.25;;;;;;;27.22;42.25;95139.59;4933487;29;20032;-85
2023/07/22 00:21:34;;;;;;;17.83;6.13;;;;;;;27.08;42.75;95117.75;4951041;29;20049;-85
2023/07/22 00:24:00;;;;;;;16.27;6.05;;;;;;;27.38;43.54;95171.97;4952026;29;20122;-85
2023/07/22 00:26:25;;;;;;;13.70;6.03;;;;;;;27.24;43.37;95150.88;4966338;28;20062;-85
2023/07/22 00:28:51;;;;;;;13.77;5.70;;;;;;;27.21;43.13;95127.16;4947233;28;20439;-85
2023/07/22 00:31:16;;;;;;;14.30;5.45;;;;;;;27.18;44.11;95142.28;4921887;29;20104;-85
2023/07/22 00:33:42;;;;;;;15.23;6.15;;;;;;;27.51;44.34;95186.81;4951996;29;20035;-84
2023/07/22 00:36:07;;;;;;;12.13;5.55;;;;;;;27.18;43.91;95125.16;4951933;29;20031;-84
2023/07/22 00:38:34;;;;;;;11.20;5.47;;;;;;;27.13;44.75;95145.38;4942418;28;20123;-84
2023/07/22 00:41:00;;;;;;;11.52;5.47;;;;;;;27.35;44.96;95183.63;4913903;28;20097;-85
2023/07/22 00:43:26;;;;;;;9.52;4.68;;;;;;;27.11;45.77;95150.41;4943997;29;20035;-83
2023/07/22 00:45:52;;;;;;;9.57;4.80;;;;;;;26.92;45.71;95114.53;4934491;28;20405;-84
2023/07/22 00:48:19;;;;;;;10.52;5.50;;;;;;;27.58;45.16;95203.22;4951617;28;20121;-84
2023/07/22 00:50:44;;;;;;;11.20;5.70;;;;;;;27.24;44.54;95162.53;4966275;28;20078;-84
2023/07/22 00:53:10;;;;;;;19.13;6.28;;;;;;;27.23;44.32;95155.56;4950123;28;20548;-84
2023/07/22 00:55:39;;;;;;;18.70;6.18;;;;;;;27.06;43.82;95147.28;4951035;29;20031;-85
2023/07/22 00:58:05;;;;;;;13.88;6.07;;;;;;;27.11;44.70;95202.13;4951495;28;20039;-84
2023/07/22 01:00:31;;;;;;;13.98;6.65;;;;;;;27.01;44.44;95226.53;4947180;28;20119;-84
2023/07/22 01:02:57;;;;;;;25.30;7.43;;;;;;;26.97;43.65;95220.31;4937167;29;20346;-84
2023/07/22 01:05:25;;;;;;;17.08;7.10;;;;;;;26.73;43.74;95172.66;4933725;28;20042;-85
2023/07/22 01:07:51;;;;;;;16.25;6.80;;;;;;;26.65;44.14;95163.66;4934362;28;20425;-84
2023/07/22 01:10:17;;;;;;;17.70;7.13;;;;;;;26.92;44.88;95204.34;4950787;29;20051;-84
2023/07/22 01:12:43;;;;;;;13.32;6.43;;;;;;;26.93;45.23;95190.31;4950576;29;20054;-84
2023/07/22 01:15:09;;;;;;;10.82;6.07;;;;;;;26.88;45.27;95180.56;4951436;29;20112;-84
2023/07/22 01:17:37;;;;;;;18.50;6.63;;;;;;;26.07;45.65;95055.56;4951136;29;20043;-84
2023/07/22 01:20:03;;;;;;;19.05;6.22;;;;;;;26.96;45.94;95202.41;4951287;29;20051;-84
2023/07/22 01:22:29;;;;;;;13.50;5.70;;;;;;;25.99;46.45;95080.31;4946001;28;20027;-84
2023/07/22 01:24:55;;;;;;;12.40;5.82;;;;;;;26.50;47.45;95194.59;4950827;28;20532;-85
2023/07/22 01:27:20;;;;;;;19.83;6.07;;;;;;;26.05;47.76;95152.19;4946641;28;20028;-84
2023/07/22 01:29:46;;;;;;;13.73;6.07;;;;;;;26.16;48.39;95182.22;4949927;29;20046;-84
2023/07/22 01:32:11;;;;;;;12.07;5.82;;;;;;;25.71;48.31;95110.69;4933522;29;20410;-84
2023/07/22 01:34:37;;;;;;;15.55;6.63;;;;;;;25.72;48.11;95110.31;4948218;28;20039;-85
2023/07/22 01:37:04;;;;;;;21.52;6.85;;;;;;;25.68;47.79;95095.94;4991209;28;20027;-85
2023/07/22 01:39:29;;;;;;;16.45;6.75;;;;;;;25.93;47.89;95109.78;4920911;29;20108;-84
2023/07/22 01:41:55;;;;;;;20.63;6.78;;;;;;;25.94;48.09;95122.19;4950940;29;20036;-84
2023/07/22 01:44:20;;;;;;;18.40;6.10;;;;;;;25.73;47.62;95092.09;4935255;29;20027;-84
2023/07/22 01:46:46;;;;;;;17.90;7.38;;;;;;;26.06;47.76;95140.19;4936769;29;20034;-85
2023/07/22 01:49:12;;;;;;;16.25;7.07;;;;;;;26.20;47.11;95153.13;4936765;29;20027;-84
2023/07/22 01:51:38;;;;;;;23.55;6.75;;;;;;;26.37;46.91;95166.13;4935494;28;20072;-84
2023/07/22 01:54:05;;;;;;;16.67;6.82;;;;;;;25.85;47.25;95075.53;4956685;29;20549;-85
2023/07/22 01:56:30;;;;;;;17.90;7.80;;;;;;;26.48;46.96;95159.63;4960235;28;20073;-84
2023/07/22 01:58:56;;;;;;;18.75;7.88;;;;;;;25.99;47.24;95091.19;4943756;28;20035;-84
2023/07/22 02:01:21;;;;;;;16.95;7.13;;;;;;;25.96;47.03;95091.94;4925848;28;20131;-84
2023/07/22 02:03:47;;;;;;;16.20;6.97;;;;;;;25.43;48.49;95067.69;4958388;29;20099;-84
2023/07/22 02:06:12;;;;;;;16.55;6.63;;;;;;;25.68;48.43;95104.06;4974751;28;20130;-84
2023/07/22 02:08:38;;;;;;;16.30;7.32;;;;;;;25.59;48.68;95091.94;4942227;29;20055;-84
2023/07/22 02:11:06;;;;;;;14.75;6.57;;;;;;;25.91;49.04;95143.91;4942970;28;20054;-84
2023/07/22 02:13:33;;;;;;;15.23;6.70;;;;;;;25.52;49.02;95099.97;4939303;28;20528;-84
2023/07/22 02:16:00;;;;;;;16.20;6.97;;;;;;;26.07;48.71;95161.56;4929104;29;20114;-84
2023/07/22 02:18:26;;;;;;;15.15;6.63;;;;;;;25.64;48.58;95116.03;4943011;29;20142;-84
2023/07/22 02:20:51;;;;;;;16.40;7.28;;;;;;;25.91;48.32;95147.41;4943778;28;20073;-83
2023/07/22 02:23:18;;;;;;;17.02;6.45;;;;;;;25.75;49.01;95133.25;4975869;28;20039;-84
2023/07/22 02:25:43;;;;;;;20.17;7.75;;;;;;;25.40;48.79;95086.66;4955231;28;20095;-84
2023/07/22 02:28:09;;;;;;;16.48;7.60;;;;;;;25.68;48.80;95128.53;4998743;28;20038;-83
2023/07/22 02:30:37;;;;;;;17.00;7.07;;;;;;;25.72;48.95;95145.63;4955353;29;20062;-84
2023/07/22 02:33:05;;;;;;;18.20;7.18;;;;;;;25.02;48.83;95031.53;4943268;28;20747;-84
2023/07/22 02:35:31;;;;;;;18.05;6.68;;;;;;;25.38;49.44;95100.59;4959697;29;20096;-84
2023/07/22 02:37:56;;;;;;;26.00;7.38;;;;;;;25.58;49.25;95121.03;4960118;29;20055;-84
2023/07/22 02:40:22;;;;;;;23.25;7.88;;;;;;;25.95;49.30;95174.59;4960457;29;20043;-84
2023/07/22 02:42:47;;;;;;;19.88;7.80;;;;;;;25.91;49.55;95188.16;4942599;28;20058;-84
2023/07/22 02:45:13;;;;;;;17.38;7.70;;;;;;;25.81;49.34;95177.16;4941541;29;20035;-84
2023/07/22 02:47:39;;;;;;;16.30;7.10;;;;;;;25.72;49.60;95142.91;4954641;29;20055;-84
2023/07/22 02:50:06;;;;;;;20.63;6.75;;;;;;;25.88;49.79;95183.44;4930116;28;20390;-83
2023/07/22 02:52:32;;;;;;;21.60;7.55;;;;;;;25.62;49.77;95159.09;4959350;28;20046;-84
2023/07/22 02:55:05;;;;;;;18.27;6.97;;;;;;;25.33;50.41;95138.91;4984219;28;20031;-84
2023/07/22 02:57:31;;;;;;;19.23;6.22;;;;;;;25.18;50.55;95129.78;5004225;28;20459;-84
2023/07/22 02:59:56;;;;;;;16.27;7.32;;;;;;;25.04;50.42;95093.53;5004562;28;20045;-84
2023/07/22 03:02:22;;;;;;;18.55;7.93;;;;;;;25.25;50.78;95121.75;4959483;29;20035;-84
2023/07/22 03:04:47;;;;;;;25.05;7.05;;;;;;;25.21;50.63;95139.91;4958603;28;20035;-83
2023/07/22 03:07:13;;;;;;;16.92;7.50;;;;;;;25.38;51.12;95193.66;4942023;29;20130;-84
2023/07/22 03:09:38;;;;;;;17.42;8.45;;;;;;;23.62;51.84;94951.22;4959080;29;20055;-84
2023/07/22 03:12:04;;;;;;;21.92;7.28;;;;;;;25.27;51.89;95192.72;4959961;29;20031;-83
2023/07/22 03:14:29;;;;;;;18.15;6.82;;;;;;;25.14;51.63;95152.59;4955509;28;20034;-83
2023/07/22 03:16:55;;;;;;;20.88;7.40;;;;;;;24.83;51.12;95094.78;4941425;28;20046;-83
2023/07/22 03:19:20;;;;;;;22.75;7.68;;;;;;;25.06;51.33;95132.72;4940923;28;20032;-83
2023/07/22 03:21:46;;;;;;;20.40;8.85;;;;;;;25.56;51.26;95199.31;4973516;28;20244;-83
2023/07/22 03:24:11;;;;;;;20.65;7.63;;;;;;;25.01;50.78;95105.94;4957362;28;20031;-83
2023/07/22 03:26:37;;;;;;;17.92;8.50;;;;;;;25.20;51.14;95132.91;4951591;29;20065;-83
2023/07/22 03:29:04;;;;;;;28.63;8.10;;;;;;;25.50;51.36;95165.50;5021319;28;20069;-83
2023/07/22 03:31:30;;;;;;;15.70;7.70;;;;;;;25.59;51.89;95193.19;4941728;28;20035;-84
2023/07/22 03:33:55;;;;;;;18.50;7.53;;;;;;;25.69;51.63;95208.06;4974064;28;20065;-84
2023/07/22 03:36:21;;;;;;;20.98;7.82;;;;;;;25.52;51.04;95182.22;4974410;28;20046;-84
2023/07/22 03:38:46;;;;;;;19.15;8.25;;;;;;;25.70;50.98;95217.78;4944048;29;20035;-84
2023/07/22 03:41:12;;;;;;;16.60;7.75;;;;;;;25.49;50.57;95177.50;4938246;29;20070;-83
2023/07/22 03:43:37;;;;;;;17.08;7.13;;;;;;;25.73;50.95;95212.38;4941861;28;20035;-84
2023/07/22 03:46:02;;;;;;;21.10;7.40;;;;;;;25.55;51.26;95205.13;4941705;29;20574;-84
2023/07/22 03:48:28;;;;;;;22.52;9.02;;;;;;;25.33;51.48;95164.13;4942044;28;20106;-84
2023/07/22 03:50:53;;;;;;;46.92;25.65;;;;;;;25.36;52.64;95200.59;4959235;29;20042;-84
2023/07/22 03:53:19;;;;;;;29.65;15.68;;;;;;;24.80;52.24;95124.56;4959175;29;20406;-84
2023/07/22 03:55:44;;;;;;;56.25;26.45;;;;;;;25.04;51.93;95177.66;4941805;29;20079;-84
2023/07/22 03:58:10;;;;;;;46.88;24.73;;;;;;;25.17;51.80;95208.88;4970793;28;20043;-84
2023/07/22 04:00:37;;;;;;;36.10;16.38;;;;;;;25.37;51.08;95232.03;4959600;29;20027;-84
2023/07/22 04:03:03;;;;;;;40.97;17.98;;;;;;;25.24;51.20;95222.53;4934303;29;20358;-83
2023/07/22 04:05:28;;;;;;;32.42;16.50;;;;;;;25.46;51.14;95250.78;4924490;28;20036;-84
2023/07/22 04:07:54;;;;;;;24.60;10.32;;;;;;;25.17;50.88;95217.03;4933588;28;20039;-84
2023/07/22 04:10:19;;;;;;;17.13;8.82;;;;;;;25.07;50.81;95204.06;4942191;28;20059;-84
2023/07/22 04:12:45;;;;;;;17.00;8.70;;;;;;;24.99;50.72;95193.09;4944381;29;20050;-84
2023/07/22 04:15:11;;;;;;;21.30;8.15;;;;;;;25.40;50.50;95228.59;4943984;29;20481;-83
2023/07/22 04:17:37;;;;;;;21.92;8.93;;;;;;;25.11;50.42;95188.59;4959326;29;20134;-84
2023/07/22 04:20:03;;;;;;;21.00;8.38;;;;;;;25.54;50.54;95230.72;4941831;28;20067;-84
2023/07/22 04:22:32;;;;;;;19.95;8.65;;;;;;;25.50;50.25;95225.22;4941788;29;20050;-84
2023/07/22 04:24:59;;;;;;;18.02;7.80;;;;;;;25.07;50.49;95157.94;4923525;29;20089;-84
2023/07/22 04:27:26;;;;;;;22.70;7.90;;;;;;;25.72;50.33;95248.06;4922648;29;20099;-84
2023/07/22 04:29:52;;;;;;;20.20;8.20;;;;;;;25.19;50.90;95196.47;4927833;29;20066;-84
2023/07/22 04:32:17;;;;;;;18.90;8.23;;;;;;;25.57;50.52;95224.53;4958588;29;20031;-84
2023/07/22 04:34:43;;;;;;;21.15;9.35;;;;;;;25.26;50.52;95164.00;4941034;29;20130;-84
2023/07/22 04:37:08;;;;;;;16.50;8.68;;;;;;;25.46;50.44;95221.69;4958037;29;20268;-84
2023/07/22 04:39:34;;;;;;;19.23;9.27;;;;;;;25.36;50.46;95217.69;4940229;29;20454;-84
2023/07/22 04:41:59;;;;;;;20.05;9.82;;;;;;;25.32;50.67;95219.56;4958596;29;20055;-84
2023/07/22 04:44:25;;;;;;;18.45;8.95;;;;;;;25.38;50.86;95233.59;4941202;29;20043;-84
2023/07/22 04:46:50;;;;;;;21.50;9.23;;;;;;;25.61;50.73;95268.88;4970776;28;20039;-84
2023/07/22 04:49:17;;;;;;;21.85;8.20;;;;;;;25.20;50.79;95208.13;4951478;28;20039;-84
2023/07/22 04:51:45;;;;;;;18.30;9.43;;;;;;;25.54;51.02;95260.59;4941034;28;20035;-84
2023/07/22 04:54:11;;;;;;;18.02;9.35;;;;;;;25.59;50.83;95254.88;4943764;29;20058;-83
2023/07/22 04:56:37;;;;;;;18.90;9.15;;;;;;;25.37;51.10;95221.19;4937829;28;20468;-84
2023/07/22 04:59:03;;;;;;;17.15;8.65;;;;;;;25.17;51.58;95220.50;4940572;29;20059;-84
2023/07/22 05:01:29;;;;;;;18.52;8.65;;;;;;;24.96;51.46;95193.03;4940643;28;20043;-84
2023/07/22 05:03:55;;;;;;;23.80;9.27;;;;;;;25.21;51.06;95206.97;4941307;29;20035;-84
2023/07/22 05:06:21;;;;;;;21.10;9.02;;;;;;;25.22;50.90;95205.84;4941424;29;20035;-83
2023/07/22 05:08:46;;;;;;;15.50;9.07;;;;;;;25.25;51.09;95221.41;4940924;28;20503;-84
2023/07/22 05:11:12;;;;;;;18.20;9.00;;;;;;;25.37;50.74;95218.47;4958022;29;20134;-84
2023/07/22 05:13:37;;;;;;;18.58;8.50;;;;;;;25.87;50.69;95276.97;4941475;28;20131;-84
2023/07/22 05:16:04;;;;;;;20.20;8.55;;;;;;;25.25;50.06;95157.03;4957890;28;20088;-84
2023/07/22 05:18:30;;;;;;;21.15;8.43;;;;;;;25.51;50.36;95202.38;4940509;29;20067;-84
2023/07/22 05:20:55;;;;;;;16.30;8.20;;;;;;;25.82;51.50;95260.22;4940845;29;20050;-84
2023/07/22 05:23:21;;;;;;;19.23;8.60;;;;;;;25.79;51.58;95267.16;4930631;29;20042;-84
2023/07/22 05:25:52;;;;;;;16.90;8.70;;;;;;;25.92;51.47;95279.38;4923570;28;20122;-84
2023/07/22 05:28:17;;;;;;;19.83;8.93;;;;;;;25.87;52.26;95259.88;4937066;29;20082;-84
2023/07/22 05:30:43;;;;;;;19.85;8.57;;;;;;;25.70;51.86;95267.47;4941882;28;20483;-84
2023/07/22 05:33:08;;;;;;;28.83;8.38;;;;;;;25.99;51.86;95284.91;4942374;28;20043;-84
2023/07/22 05:35:34;;;;;;;17.02;8.48;;;;;;;25.57;50.90;95210.97;4958869;29;20047;-84
2023/07/22 05:38:00;;;;;;;14.48;8.07;;;;;;;24.49;50.85;95053.22;4940718;28;20107;-84
2023/07/22 05:40:26;;;;;;;16.05;8.85;;;;;;;25.89;50.64;95250.22;4941351;28;20054;-84
2023/07/22 05:42:51;;;;;;;17.73;8.15;;;;;;;26.27;50.70;95294.56;4958490;29;20352;-84
2023/07/22 05:45:16;;;;;;;17.20;8.45;;;;;;;26.16;51.74;95290.94;4941293;29;20027;-84
2023/07/22 05:47:42;;;;;;;15.43;8.23;;;;;;;25.77;51.58;95198.06;4953914;28;20038;-84
2023/07/22 05:50:08;;;;;;;17.38;8.27;;;;;;;25.98;51.83;95255.38;4951732;28;20050;-84
2023/07/22 05:52:33;;;;;;;16.02;8.13;;;;;;;25.87;51.34;95247.09;4937724;29;20070;-84
2023/07/22 05:54:59;;;;;;;17.35;8.70;;;;;;;26.05;51.97;95269.84;4944036;29;20039;-84
2023/07/22 05:57:24;;;;;;;17.42;8.70;;;;;;;25.95;51.87;95239.81;4976017;28;20082;-84
2023/07/22 05:59:50;;;;;;;18.85;8.05;;;;;;;25.53;52.05;95181.06;4942561;28;20035;-84
2023/07/22 06:02:18;;;;;;;15.70;8.18;;;;;;;26.34;52.03;95281.84;4957987;28;20150;-84
2023/07/22 06:04:43;;;;;;;19.10;8.35;;;;;;;26.34;51.50;95275.63;4946238;28;20036;-83
2023/07/22 06:07:09;;;;;;;20.00;7.93;;;;;;;26.17;51.53;95249.00;4952141;28;20047;-83
2023/07/22 06:09:35;;;;;;;23.60;7.75;;;;;;;26.50;51.30;95278.91;4982881;28;20047;-84
2023/07/22 06:12:01;;;;;;;17.05;8.25;;;;;;;25.04;51.44;95083.47;4976602;28;20040;-83
2023/07/22 06:14:27;;;;;;;15.13;8.48;;;;;;;25.42;52.17;95165.78;4940780;29;20035;-83
2023/07/22 06:16:53;;;;;;;15.85;8.55;;;;;;;25.78;52.80;95234.94;4943250;29;20035;-83
2023/07/22 06:19:18;;;;;;;15.18;7.70;;;;;;;26.17;52.69;95282.38;4942027;28;20027;-83
2023/07/22 06:21:44;;;;;;;16.73;7.65;;;;;;;25.75;52.70;95261.69;4941157;29;20186;-84
2023/07/22 06:24:10;;;;;;;18.50;8.85;;;;;;;26.27;52.47;95317.09;4955272;29;20027;-83
2023/07/22 06:26:36;;;;;;;17.85;7.63;;;;;;;26.36;52.41;95319.53;4943230;29;20043;-83
2023/07/22 06:29:02;;;;;;;26.92;8.75;;;;;;;26.44;51.89;95315.75;4959296;29;20079;-83
2023/07/22 06:31:30;;;;;;;23.63;8.48;;;;;;;26.44;51.52;95311.09;4970235;28;20070;-83
2023/07/22 06:33:57;;;;;;;18.92;7.95;;;;;;;26.39;51.74;95297.06;4939965;28;20039;-83
2023/07/22 06:36:22;;;;;;;20.13;8.40;;;;;;;25.49;51.94;95155.78;4957861;29;20110;-83
2023/07/22 06:38:48;;;;;;;19.85;7.70;;;;;;;26.34;51.93;95267.47;4960475;28;20036;-83
2023/07/22 06:41:13;;;;;;;20.30;8.38;;;;;;;25.69;51.96;95154.53;4943909;29;20062;-83
2023/07/22 06:43:40;;;;;;;13.90;7.03;;;;;;;26.88;51.66;95326.72;4948853;29;20046;-83
2023/07/22 06:46:05;;;;;;;18.10;7.18;;;;;;;27.01;51.36;95325.31;4956857;28;20032;-83
2023/07/22 06:48:31;;;;;;;23.00;7.88;;;;;;;26.89;51.80;95307.28;4957553;28;20146;-84
2023/07/22 06:50:56;;;;;;;16.45;7.38;;;;;;;27.02;51.50;95317.94;4944594;29;20040;-84
2023/07/22 06:53:22;;;;;;;13.35;7.35;;;;;;;27.17;51.11;95316.91;4943701;28;20031;-84
2023/07/22 06:55:54;;;;;;;19.42;8.65;;;;;;;26.94;50.76;95273.53;4945053;28;20047;-84
2023/07/22 06:58:19;;;;;;;15.75;7.03;;;;;;;27.22;50.57;95322.00;4928200;29;20059;-84
2023/07/22 07:00:45;;;;;;;15.80;7.50;;;;;;;27.13;51.17;95316.09;4972053;28;20078;-84
2023/07/22 07:03:11;;;;;;;14.23;7.07;;;;;;;27.29;50.84;95313.91;4929421;28;20024;-84
2023/07/22 07:05:36;;;;;;;20.15;7.38;;;;;;;26.94;50.58;95251.75;4955302;29;20055;-85
2023/07/22 07:08:02;;;;;;;16.42;7.93;;;;;;;27.38;50.47;95316.31;4933399;29;20030;-84
2023/07/22 07:10:27;;;;;;;21.73;8.40;;;;;;;26.78;50.24;95254.69;4968142;29;20055;-84
2023/07/22 07:12:53;;;;;;;17.77;7.63;;;;;;;27.28;49.94;95313.13;4945469;28;20024;-84
2023/07/22 07:15:18;;;;;;;15.90;7.88;;;;;;;27.36;50.03;95286.72;4960675;28;20039;-84
2023/07/22 07:17:43;;;;;;;22.98;7.32;;;;;;;27.17;50.99;95252.34;4960635;29;20058;-84
2023/07/22 07:20:09;;;;;;;19.70;7.70;;;;;;;27.10;49.83;95230.50;4946690;28;20036;-83
2023/07/22 07:22:35;;;;;;;19.55;8.60;;;;;;;27.61;49.39;95298.59;4941853;29;20514;-83
2023/07/22 07:25:00;;;;;;;18.02;8.32;;;;;;;27.20;49.01;95210.75;4957594;29;20063;-84
2023/07/22 07:27:27;;;;;;;15.57;8.35;;;;;;;27.13;48.67;95208.00;4943429;28;20027;-84
2023/07/22 07:29:52;;;;;;;16.83;8.32;;;;;;;27.57;49.07;95273.28;4960828;29;20073;-83
2023/07/22 07:32:18;;;;;;;16.30;8.05;;;;;;;27.77;49.11;95295.56;4960277;28;20035;-84
2023/07/22 07:34:43;;;;;;;16.95;8.63;;;;;;;27.47;48.56;95240.47;4940549;28;20108;-83
2023/07/22 07:37:09;;;;;;;23.02;9.18;;;;;;;27.58;48.92;95252.25;5039491;28;20463;-83
2023/07/22 07:39:34;;;;;;;23.77;8.68;;;;;;;27.56;48.97;95247.19;4942006;29;20101;-83
2023/07/22 07:41:59;;;;;;;17.75;8.38;;;;;;;27.84;48.71;95283.94;4960160;29;20039;-83
2023/07/22 07:44:25;;;;;;;19.67;8.45;;;;;;;27.93;48.94;95289.81;4959163;29;20038;-83
2023/07/22 07:46:50;;;;;;;21.70;9.00;;;;;;;27.57;48.46;95220.72;4943135;28;20492;-83
2023/07/22 07:49:16;;;;;;;16.80;8.25;;;;;;;27.89;48.60;95267.22;4960002;28;20090;-83
2023/07/22 07:51:42;;;;;;;22.00;8.93;;;;;;;27.86;48.31;95252.41;4960153;29;20469;-83
2023/07/22 07:54:08;;;;;;;20.33;8.85;;;;;;;28.02;48.73;95260.28;4959872;29;20057;-83
2023/07/22 07:56:33;;;;;;;15.02;8.82;;;;;;;28.22;49.15;95288.06;4974695;28;20031;-83
2023/07/22 07:58:59;;;;;;;22.60;8.63;;;;;;;28.13;48.26;95250.19;4942422;28;20035;-83
2023/07/22 08:01:24;;;;;;;25.15;9.30;;;;;;;28.50;47.87;95276.44;4960299;28;20499;-83
2023/07/22 08:03:50;;;;;;;18.85;9.35;;;;;;;28.50;48.83;95273.72;4958649;29;20035;-83
2023/07/22 08:06:16;;;;;;;24.05;9.23;;;;;;;28.65;47.83;95287.00;4958692;28;20050;-84
2023/07/22 08:08:41;;;;;;;27.45;9.65;;;;;;;28.19;47.40;95256.88;4940701;28;20104;-83
2023/07/22 08:11:08;;;;;;;25.40;9.18;;;;;;;27.98;46.87;95218.59;4925986;29;20055;-83
2023/07/22 08:13:35;;;;;;;14.20;8.57;;;;;;;28.21;47.17;95221.03;4941948;29;20092;-84
2023/07/22 08:16:03;;;;;;;24.05;8.77;;;;;;;28.65;46.78;95275.31;4959063;29;20027;-84
2023/07/22 08:18:29;;;;;;;30.67;10.40;;;;;;;28.71;46.45;95254.66;4959941;29;20037;-84
2023/07/22 08:20:56;;;;;;;22.10;9.68;;;;;;;28.33;46.79;95205.09;4959351;29;20051;-84
2023/07/22 08:23:21;;;;;;;20.00;9.38;;;;;;;28.77;47.07;95275.75;4951856;29;20047;-84
2023/07/22 08:25:47;;;;;;;19.65;8.88;;;;;;;28.76;46.81;95257.81;4950393;29;20031;-84
2023/07/22 08:28:13;;;;;;;19.60;8.65;;;;;;;28.38;46.96;95182.09;4959358;29;20175;-84
2023/07/22 08:30:40;;;;;;;24.35;9.43;;;;;;;28.61;46.39;95218.00;4932047;28;20040;-84
2023/07/22 08:33:09;;;;;;;19.85;9.25;;;;;;;28.83;46.30;95240.69;4954453;29;20181;-84
2023/07/22 08:35:36;;;;;;;24.02;9.27;;;;;;;28.71;46.29;95211.78;4942848;28;20099;-84
2023/07/22 08:38:02;;;;;;;19.95;9.45;;;;;;;28.76;45.19;95241.44;4941917;29;20432;-84
2023/07/22 08:40:32;;;;;;;18.85;8.95;;;;;;;29.04;45.45;95239.91;4943082;28;20450;-84
2023/07/22 08:42:59;;;;;;;20.10;8.57;;;;;;;29.21;45.33;95252.78;5007411;28;20051;-84
2023/07/22 08:45:28;;;;;;;22.50;9.57;;;;;;;28.93;45.18;95193.50;5009975;28;20054;-84
2023/07/22 08:47:57;;;;;;;19.63;9.43;;;;;;;29.12;45.36;95192.31;4941696;29;20035;-84
2023/07/22 08:50:29;;;;;;;20.40;9.00;;;;;;;29.08;45.90;95211.41;4942190;28;20409;-84
2023/07/22 08:52:54;;;;;;;17.42;8.85;;;;;;;28.34;46.17;95086.66;4941963;29;20489;-84
2023/07/22 08:55:20;;;;;;;30.90;9.88;;;;;;;29.07;45.75;95160.72;4940392;29;20042;-84
2023/07/22 08:57:48;;;;;;;24.73;9.43;;;;;;;29.63;45.58;95229.31;4958787;29;20068;-84
2023/07/22 09:00:15;;;;;;;17.08;9.00;;;;;;;29.67;45.03;95230.09;4959806;28;20032;-84
2023/07/22 09:02:41;;;;;;;25.35;9.73;;;;;;;29.87;44.33;95221.06;4953417;28;20497;-84
2023/07/22 09:05:09;;;;;;;21.77;9.23;;;;;;;29.72;43.71;95211.34;4928036;28;20039;-84
2023/07/22 09:07:35;;;;;;;17.63;9.35;;;;;;;29.74;43.69;95189.09;4941348;29;20839;-84
2023/07/22 09:10:02;;;;;;;21.95;9.07;;;;;;;29.87;45.26;95207.38;4938520;28;20070;-84
2023/07/22 09:12:27;;;;;;;20.95;8.63;;;;;;;29.67;44.20;95170.75;4938802;29;20075;-84
2023/07/22 09:14:53;;;;;;;21.50;8.80;;;;;;;29.70;42.69;95169.16;4939925;29;20036;-84
2023/07/22 09:17:19;;;;;;;31.63;9.95;;;;;;;29.54;42.46;95145.03;4939926;29;20089;-84
2023/07/22 09:19:44;;;;;;;22.27;8.93;;;;;;;30.06;42.32;95219.81;4938976;29;20043;-84
2023/07/22 09:22:10;;;;;;;21.48;9.65;;;;;;;29.86;43.05;95177.69;4938685;29;20134;-84
2023/07/22 09:24:35;;;;;;;18.70;8.95;;;;;;;30.16;43.62;95220.94;4940067;29;20044;-84
2023/07/22 09:27:01;;;;;;;25.27;10.00;;;;;;;29.79;43.31;95159.38;4940130;29;20056;-84
2023/07/22 09:29:38;;;;;;;25.88;9.68;;;;;;;30.21;42.93;95209.63;4939215;29;20102;-84
2023/07/22 09:32:05;;;;;;;26.83;8.98;;;;;;;30.19;43.18;95196.34;4938695;28;20031;-84
2023/07/22 09:34:30;;;;;;;23.67;9.10;;;;;;;30.11;43.61;95189.34;4940872;29;20043;-84
2023/07/22 09:36:57;;;;;;;16.90;8.45;;;;;;;30.17;43.50;95193.22;4933739;29;20047;-84
2023/07/22 09:39:24;;;;;;;28.10;9.38;;;;;;;30.15;41.86;95172.91;4951522;28;20151;-84
2023/07/22 09:41:50;;;;;;;20.25;8.50;;;;;;;29.99;42.06;95134.31;4957814;28;20044;-84
2023/07/22 09:44:16;;;;;;;20.58;9.20;;;;;;;30.12;41.99;95127.22;4940423;29;20595;-84
2023/07/22 09:46:47;;;;;;;26.75;8.88;;;;;;;30.47;41.38;95159.81;4972493;28;20078;-84
2023/07/22 09:49:12;;;;;;;21.80;9.18;;;;;;;30.86;41.49;95200.63;4937498;29;20107;-84
2023/07/22 09:51:39;;;;;;;24.35;8.93;;;;;;;30.98;41.90;95180.16;4956765;28;20074;-84
2023/07/22 09:54:06;;;;;;;20.75;9.38;;;;;;;31.44;40.88;95177.78;4933256;28;20031;-84
2023/07/22 09:56:32;;;;;;;20.33;9.10;;;;;;;31.78;39.43;95135.94;4937472;29;20044;-84
2023/07/22 09:58:59;;;;;;;20.27;8.02;;;;;;;32.66;37.17;95158.63;4938575;29;20119;-84
2023/07/22 10:01:25;;;;;;;28.30;8.57;;;;;;;33.24;35.62;95129.06;4940630;29;20143;-84
2023/07/22 10:03:55;;;;;;;21.25;8.63;;;;;;;34.12;33.68;95131.25;4922142;29;20059;-84
2023/07/22 10:06:26;;;;;;;19.63;8.70;;;;;;;34.53;33.16;95128.78;4940079;29;20355;-84
2023/07/22 10:08:52;;;;;;;27.00;8.82;;;;;;;35.55;31.94;95163.28;4941663;29;20032;-84
2023/07/22 10:11:18;;;;;;;24.50;8.20;;;;;;;36.00;30.79;95130.09;4970384;28;20082;-84
2023/07/22 10:13:44;;;;;;;21.08;8.27;;;;;;;36.90;29.77;95181.44;4942265;29;20051;-84
2023/07/22 10:16:10;;;;;;;22.38;8.75;;;;;;;37.15;28.59;95125.38;4935037;28;20098;-84
2023/07/22 10:18:37;;;;;;;20.23;8.07;;;;;;;37.84;28.79;95173.16;4953672;29;20079;-84
2023/07/22 10:21:03;;;;;;;19.35;7.18;;;;;;;37.82;27.70;95172.81;4963374;28;20031;-84
2023/07/22 10:23:31;;;;;;;20.85;8.23;;;;;;;37.41;27.19;95104.69;4942401;29;20119;-84
2023/07/22 10:25:57;;;;;;;23.30;8.10;;;;;;;37.92;26.98;95123.84;4941246;29;20110;-84
2023/07/22 10:28:23;;;;;;;31.40;8.60;;;;;;;38.21;27.08;95116.03;4940260;29;20082;-84
2023/07/22 10:30:51;;;;;;;26.65;8.80;;;;;;;38.27;27.41;95139.13;4940180;29;20040;-84
2023/07/22 10:33:17;;;;;;;22.70;8.48;;;;;;;38.16;26.48;95081.38;4941276;29;20055;-84
2023/07/22 10:36:00;;;;;;;23.98;7.35;;;;;;;38.61;26.75;95135.44;4972543;28;20036;-84
2023/07/22 10:38:26;;;;;;;22.08;6.85;;;;;;;38.37;25.73;95151.78;4971856;28;20068;-84
2023/07/22 10:40:53;;;;;;;19.58;8.00;;;;;;;38.34;26.07;95149.94;4941778;29;20036;-84
2023/07/22 10:43:41;;;;;;;27.00;7.47;;;;;;;38.61;25.67;95154.81;4972579;28;20485;-83
2023/07/22 10:46:13;;;;;;;28.45;7.45;;;;;;;37.77;25.45;95120.78;4940660;29;20446;-84
2023/07/22 10:48:41;;;;;;;33.60;7.97;;;;;;;37.83;24.87;95047.81;4960709;28;20054;-83
2023/07/22 10:51:11;;;;;;;26.95;7.55;;;;;;;38.46;24.79;95149.03;4968347;28;20036;-83
2023/07/22 10:53:45;;;;;;;32.30;7.68;;;;;;;38.16;24.24;95169.97;4942608;29;20099;-83
2023/07/22 10:56:14;;;;;;;26.98;8.27;;;;;;;37.44;25.04;95153.59;4941771;29;20031;-83
2023/07/22 10:58:46;;;;;;;29.17;7.53;;;;;;;36.86;26.33;95150.38;4941068;29;20713;-83
2023/07/22 11:01:31;;;;;;;34.63;8.15;;;;;;;36.99;25.81;95159.44;4971134;28;20059;-83
2023/07/22 11:04:18;;;;;;;29.83;7.35;;;;;;;37.10;26.00;95146.00;4932894;28;20058;-83
2023/07/22 11:06:43;;;;;;;32.25;6.90;;;;;;;37.29;25.82;95145.00;4933537;29;20123;-83
2023/07/22 11:09:27;;;;;;;31.05;7.55;;;;;;;37.09;26.51;95136.16;4940557;29;20027;-83
2023/07/22 11:11:55;;;;;;;25.77;7.22;;;;;;;36.63;26.25;95135.66;4940232;29;20054;-83
2023/07/22 11:14:22;;;;;;;29.83;7.03;;;;;;;36.56;26.14;95101.97;4941126;29;20142;-83
2023/07/22 11:16:48;;;;;;;25.13;6.10;;;;;;;36.65;26.50;95124.94;4940732;29;20077;-83
2023/07/22 11:19:19;;;;;;;30.85;6.78;;;;;;;37.14;26.31;95116.31;4941100;29;20046;-83
2023/07/22 11:21:47;;;;;;;30.95;8.35;;;;;;;37.22;25.62;95095.47;4940754;29;20251;-83